Pagina principale
METAR-TAF:

METAR-TAF

Aeroporti :

Aeroporto di Bergamo-Orio al Serio

Bergamo, Italia

latitudine: 45-40N, longitudine: 009-42E, altezza: 238 m

Osservazione

Il bollettino è stato emesso 28 minuti fa, alle 15:20 UTC
Vento 4 kt da ovest, variando fra sud/sud-ovest e ovest/nord-ovest
Temperature 29°C
Umidità 45%
Pressione 1018 hPa
Visibilità 10 km o più
Poco nuvoloso ad un'altezza di 2500 ft, Cumulo congesto.
rovesci nelle vicinanze

METAR: LIME 241520Z 27004KT 200V300 9999 VCSH FEW025TCU 29/16 Q1018 NOSIG

Ora: 17:48 (15:48 UTC)

Previsione

Il bollettino è stato emesso 4 ore e 48 minuti fa, alle 11:00 UTC
Previsione valida dal 24 alle 12 UTC al 25 alle 12 UTC
Vento 5 kt da direzioni variabili
Visibilità 10 km o più
Nubi sparse ad un'altezza di 5000 ft
Probabilità 30% :
Temporaneamente
dal 24 alle 12 UTC al 24 alle 18 UTC
temporale, pioggia

TAF: LIME 241100Z 2412/2512 VRB05KT 9999 SCT050 PROB30 TEMPO 2412/2418 TSRA

Osservazioni e previsioni meteorologiche di più di 4000 aeroporti (messaggi METAR e TAF).

Le stazioni disponibili sono rappresentate dai dischi gialli e rossi sulla carta.

Puntare il mouse per vedere il nome della stazione.

Clicca sopra per visualizzare le osservazioni e previsioni meteorologiche.

Per cambiare la mappa : fare clic sui pulsanti verdi con una croce nera per ingrandire, il pulsante verde con un trattino per diminuire, o sulla freccia verde per le mappe adiacenti.


METAR-TAF: